createdAt,value
2022-08-26T00:00:07.971Z,16.97
2022-08-26T00:03:00.987Z,16.93
2022-08-26T00:05:29.102Z,16.90
2022-08-26T00:07:57.468Z,16.89
2022-08-26T00:10:25.888Z,16.88
2022-08-26T00:12:53.871Z,16.86
2022-08-26T00:15:23.491Z,16.83
2022-08-26T00:17:53.804Z,16.80
2022-08-26T00:20:26.775Z,16.77
2022-08-26T00:22:55.101Z,16.73
2022-08-26T00:25:24.084Z,16.68
2022-08-26T00:27:52.288Z,16.64
2022-08-26T00:30:24.187Z,16.59
2022-08-26T00:32:56.148Z,16.55
2022-08-26T00:35:25.904Z,16.53
2022-08-26T00:37:57.271Z,16.52
2022-08-26T00:40:31.320Z,16.52
2022-08-26T00:43:00.794Z,16.51
2022-08-26T00:45:39.872Z,16.51
2022-08-26T00:48:09.881Z,16.52
2022-08-26T00:50:42.506Z,16.52
2022-08-26T00:53:24.066Z,16.51
2022-08-26T00:56:06.187Z,16.49
2022-08-26T00:58:38.826Z,16.46
2022-08-26T01:01:11.569Z,16.42
2022-08-26T01:03:42.002Z,16.38
2022-08-26T01:06:13.033Z,16.35
2022-08-26T01:08:41.469Z,16.33
2022-08-26T01:11:11.799Z,16.31
2022-08-26T01:13:40.423Z,16.29
2022-08-26T01:16:12.963Z,16.28
2022-08-26T01:18:43.385Z,16.27
2022-08-26T01:21:31.639Z,16.26
2022-08-26T01:23:59.916Z,16.24
2022-08-26T01:26:33.972Z,16.22
2022-08-26T01:29:05.524Z,16.18
2022-08-26T01:31:39.196Z,16.14
2022-08-26T01:34:11.213Z,16.08
2022-08-26T01:36:39.887Z,16.02
2022-08-26T01:39:09.014Z,15.98
2022-08-26T01:41:40.676Z,15.93
2022-08-26T01:44:19.580Z,15.90
2022-08-26T01:46:50.761Z,15.88
2022-08-26T01:49:21.065Z,15.86
2022-08-26T01:51:52.042Z,15.85
2022-08-26T01:54:21.084Z,15.85
2022-08-26T01:56:53.044Z,15.84
2022-08-26T01:59:23.891Z,15.83
2022-08-26T02:01:53.266Z,15.82
2022-08-26T02:04:31.028Z,15.79
2022-08-26T02:07:03.207Z,15.75
2022-08-26T02:09:31.826Z,15.71
2022-08-26T02:12:07.286Z,15.66
2022-08-26T02:14:44.022Z,15.60
2022-08-26T02:17:13.146Z,15.54
2022-08-26T02:19:46.567Z,15.50
2022-08-26T02:22:20.041Z,15.46
2022-08-26T02:24:56.037Z,15.43
2022-08-26T02:27:33.728Z,15.42
2022-08-26T02:30:15.141Z,15.42
2022-08-26T02:32:45.597Z,15.42
2022-08-26T02:35:20.102Z,15.44
2022-08-26T02:37:51.026Z,15.45
2022-08-26T02:40:25.592Z,15.44
2022-08-26T02:42:56.094Z,15.43
2022-08-26T02:45:28.127Z,15.41
2022-08-26T02:47:58.260Z,15.37
2022-08-26T02:50:27.839Z,15.33
2022-08-26T02:52:56.351Z,15.28
2022-08-26T02:55:24.772Z,15.25
2022-08-26T02:57:52.936Z,15.22
2022-08-26T03:00:21.154Z,15.19
2022-08-26T03:02:49.290Z,15.20
2022-08-26T03:05:19.827Z,15.21
2022-08-26T03:07:49.238Z,15.20
2022-08-26T03:10:17.634Z,15.20
2022-08-26T03:12:47.489Z,15.21
2022-08-26T03:15:18.707Z,15.22
2022-08-26T03:17:48.423Z,15.22
2022-08-26T03:20:18.651Z,15.20
2022-08-26T03:22:47.191Z,15.18
2022-08-26T03:25:17.448Z,15.15
2022-08-26T03:27:45.535Z,15.13
2022-08-26T03:30:33.270Z,15.10
2022-08-26T03:33:01.643Z,15.05
2022-08-26T03:35:32.346Z,15.02
2022-08-26T03:38:01.859Z,14.98
2022-08-26T03:40:29.969Z,14.96
2022-08-26T03:42:57.951Z,14.91
2022-08-26T03:45:26.188Z,14.91
2022-08-26T03:47:55.092Z,14.92
2022-08-26T03:50:26.248Z,14.94
2022-08-26T03:52:56.314Z,14.97
2022-08-26T03:55:27.517Z,15.02
2022-08-26T03:57:55.752Z,15.06
2022-08-26T04:00:24.388Z,15.09
2022-08-26T04:02:53.428Z,15.12
2022-08-26T04:05:23.336Z,15.14
2022-08-26T04:07:52.419Z,15.17
2022-08-26T04:10:28.735Z,15.17
2022-08-26T04:12:59.727Z,15.23
2022-08-26T04:15:28.293Z,15.32
2022-08-26T04:17:57.495Z,15.38
2022-08-26T04:20:26.913Z,15.46
2022-08-26T04:22:55.111Z,15.53
2022-08-26T04:25:24.201Z,15.58
2022-08-26T04:27:52.561Z,15.65
2022-08-26T04:30:21.374Z,15.75
2022-08-26T04:32:49.970Z,15.85
2022-08-26T04:35:17.964Z,15.97
2022-08-26T04:37:46.142Z,16.07
2022-08-26T04:40:14.214Z,16.18
2022-08-26T04:42:42.205Z,16.26
2022-08-26T04:45:11.809Z,16.30
2022-08-26T04:47:40.646Z,16.34
2022-08-26T04:50:09.256Z,16.36
2022-08-26T04:52:39.226Z,16.41
2022-08-26T04:55:08.521Z,16.46
2022-08-26T04:57:36.960Z,16.49
2022-08-26T05:00:08.105Z,16.52
2022-08-26T05:02:36.538Z,16.55
2022-08-26T05:05:05.902Z,16.64
2022-08-26T05:07:35.480Z,16.72
2022-08-26T05:10:08.709Z,16.82
2022-08-26T05:12:37.111Z,16.89
2022-08-26T05:15:07.064Z,16.95
2022-08-26T05:17:35.191Z,17.06
2022-08-26T05:20:05.240Z,17.19
2022-08-26T05:22:37.688Z,17.33
2022-08-26T05:25:06.285Z,17.45
2022-08-26T05:27:34.390Z,17.58
2022-08-26T05:30:02.751Z,17.78
2022-08-26T05:32:32.254Z,18.08
2022-08-26T05:35:00.417Z,18.42
2022-08-26T05:37:28.806Z,18.84
2022-08-26T05:39:57.671Z,19.48
2022-08-26T05:42:26.128Z,20.10
2022-08-26T05:44:56.031Z,20.76
2022-08-26T05:47:26.518Z,21.45
2022-08-26T05:49:55.883Z,22.03
2022-08-26T05:52:24.649Z,22.41
2022-08-26T05:54:54.482Z,22.91
2022-08-26T05:57:23.112Z,23.42
2022-08-26T05:59:51.935Z,23.91
2022-08-26T06:02:20.963Z,24.41
2022-08-26T06:04:49.118Z,24.86
2022-08-26T06:07:17.316Z,25.25
2022-08-26T06:09:46.668Z,25.69
2022-08-26T06:12:15.917Z,26.12
2022-08-26T06:14:46.716Z,26.44
2022-08-26T06:17:17.157Z,26.48
2022-08-26T06:19:45.983Z,26.44
2022-08-26T06:22:34.360Z,26.33
2022-08-26T06:25:20.785Z,26.40
2022-08-26T06:27:49.051Z,26.39
2022-08-26T06:30:17.579Z,26.38
2022-08-26T06:32:49.432Z,26.46
2022-08-26T06:35:17.569Z,26.49
2022-08-26T06:37:46.686Z,26.60
2022-08-26T06:40:14.842Z,26.48
2022-08-26T06:42:43.959Z,26.49
2022-08-26T06:45:12.186Z,26.54
2022-08-26T06:47:40.410Z,26.82
2022-08-26T06:50:08.878Z,26.83
2022-08-26T06:52:37.062Z,27.06
2022-08-26T06:55:05.821Z,27.54
2022-08-26T06:57:34.813Z,27.87
2022-08-26T07:00:13.540Z,28.09
2022-08-26T07:02:46.872Z,28.01
2022-08-26T07:05:15.590Z,27.87
2022-08-26T07:07:44.298Z,28.01
2022-08-26T07:10:12.596Z,28.42
2022-08-26T07:12:40.831Z,28.68
2022-08-26T07:15:10.438Z,28.52
2022-08-26T07:17:38.729Z,28.43
2022-08-26T07:20:10.182Z,28.58
2022-08-26T07:22:39.410Z,28.91
2022-08-26T07:25:09.343Z,29.07
2022-08-26T07:27:38.870Z,29.12
2022-08-26T07:30:07.946Z,29.28
2022-08-26T07:32:37.843Z,29.31
2022-08-26T07:35:06.756Z,29.28
2022-08-26T07:37:39.350Z,29.29
2022-08-26T07:40:09.247Z,29.31
2022-08-26T07:42:37.632Z,29.46
2022-08-26T07:45:06.767Z,29.59
2022-08-26T07:47:35.485Z,29.52
2022-08-26T07:50:04.064Z,29.28
2022-08-26T07:52:34.298Z,29.35
2022-08-26T07:55:02.746Z,29.66
2022-08-26T07:57:30.909Z,29.83
2022-08-26T07:59:59.827Z,29.91
2022-08-26T08:02:29.634Z,30.02
2022-08-26T08:04:58.523Z,30.18
2022-08-26T08:07:44.444Z,30.44
2022-08-26T08:10:17.451Z,30.65
2022-08-26T08:12:47.174Z,30.66
2022-08-26T08:15:17.563Z,30.56
2022-08-26T08:17:46.025Z,30.50
2022-08-26T08:20:15.104Z,30.54
2022-08-26T08:22:43.698Z,30.47
2022-08-26T08:25:12.815Z,30.21
2022-08-26T08:27:43.427Z,30.02
2022-08-26T08:30:14.066Z,30.01
2022-08-26T08:32:45.968Z,30.03
2022-08-26T08:35:17.768Z,29.86
2022-08-26T08:37:46.301Z,29.80
2022-08-26T08:40:18.510Z,29.65
2022-08-26T08:43:04.538Z,29.48
2022-08-26T08:45:50.875Z,29.39
2022-08-26T08:48:19.052Z,29.25
2022-08-26T08:50:54.691Z,29.05
2022-08-26T08:53:43.161Z,28.90
2022-08-26T08:56:46.463Z,28.71
2022-08-26T08:59:28.151Z,28.51
2022-08-26T09:02:18.452Z,28.39
2022-08-26T09:05:03.249Z,28.28
2022-08-26T09:07:37.524Z,28.16
2022-08-26T09:10:32.531Z,28.19
2022-08-26T09:13:04.014Z,28.19
2022-08-26T09:15:47.994Z,28.13
2022-08-26T09:18:38.871Z,28.10
2022-08-26T09:21:10.532Z,28.11
2022-08-26T09:23:41.909Z,28.10
2022-08-26T09:26:30.652Z,28.08
2022-08-26T09:29:05.894Z,27.98
2022-08-26T09:31:42.696Z,28.02
2022-08-26T09:34:10.829Z,28.17
2022-08-26T09:36:44.245Z,28.22
2022-08-26T09:39:25.700Z,28.29
2022-08-26T09:42:25.753Z,28.33
2022-08-26T09:44:59.595Z,28.41
2022-08-26T09:47:34.170Z,28.48
2022-08-26T09:50:31.312Z,28.50
2022-08-26T09:53:21.011Z,28.47
2022-08-26T09:56:11.475Z,28.54
2022-08-26T09:58:43.131Z,28.60
2022-08-26T10:01:42.257Z,28.67
2022-08-26T10:04:21.421Z,28.68
2022-08-26T10:07:01.903Z,28.70
2022-08-26T10:09:35.789Z,28.71
2022-08-26T10:12:12.216Z,28.77
2022-08-26T10:14:48.309Z,28.81
2022-08-26T10:17:31.791Z,28.77
2022-08-26T10:20:22.443Z,28.64
2022-08-26T10:23:10.192Z,28.60
2022-08-26T10:25:49.297Z,28.72
2022-08-26T10:28:21.726Z,28.80
2022-08-26T10:30:59.973Z,28.89
2022-08-26T10:33:28.668Z,28.99
2022-08-26T10:36:03.983Z,29.12
2022-08-26T10:38:38.893Z,29.19
2022-08-26T10:41:21.045Z,29.17
2022-08-26T10:43:56.584Z,29.11
2022-08-26T10:46:33.570Z,29.10
2022-08-26T10:49:06.636Z,28.93
2022-08-26T10:51:45.620Z,28.77
2022-08-26T10:54:27.497Z,28.93
2022-08-26T10:57:21.711Z,29.07
2022-08-26T11:00:51.862Z,29.26
2022-08-26T11:03:42.076Z,29.33
2022-08-26T11:06:19.058Z,29.35
2022-08-26T11:08:47.765Z,29.44
2022-08-26T11:11:40.563Z,29.52
2022-08-26T11:14:29.278Z,29.48
2022-08-26T11:17:00.243Z,29.59
2022-08-26T11:19:59.535Z,29.67
2022-08-26T11:22:35.013Z,29.73
2022-08-26T11:25:11.602Z,29.54
2022-08-26T11:27:40.394Z,29.55
2022-08-26T11:30:08.707Z,29.61
2022-08-26T11:32:39.314Z,29.66
2022-08-26T11:35:12.656Z,29.72
2022-08-26T11:37:41.297Z,29.73
2022-08-26T11:40:14.917Z,29.76
2022-08-26T11:42:55.727Z,29.79
2022-08-26T11:45:38.643Z,29.86
2022-08-26T11:48:32.772Z,29.89
2022-08-26T11:51:24.773Z,29.68
2022-08-26T11:54:09.429Z,29.61
2022-08-26T11:56:39.653Z,29.77
2022-08-26T11:59:12.546Z,29.93
2022-08-26T12:01:42.997Z,30.07
2022-08-26T12:04:22.523Z,30.19
2022-08-26T12:06:52.194Z,30.21
2022-08-26T12:09:23.012Z,30.29
2022-08-26T12:11:51.101Z,30.19
2022-08-26T12:14:24.541Z,30.06
2022-08-26T12:16:54.342Z,30.14
2022-08-26T12:19:27.497Z,30.26
2022-08-26T12:21:59.409Z,30.31
2022-08-26T12:24:27.570Z,30.34
2022-08-26T12:27:14.227Z,30.32
2022-08-26T12:29:43.324Z,30.33
2022-08-26T12:32:18.512Z,30.38
2022-08-26T12:34:49.172Z,30.33
2022-08-26T12:37:18.805Z,30.32
2022-08-26T12:39:49.362Z,30.27
2022-08-26T12:42:17.587Z,30.30
2022-08-26T12:44:53.490Z,30.38
2022-08-26T12:47:23.404Z,30.39
2022-08-26T12:50:20.758Z,30.31
2022-08-26T12:52:55.996Z,30.27
2022-08-26T12:55:25.712Z,30.12
2022-08-26T12:58:10.855Z,30.03
2022-08-26T13:00:41.061Z,30.01
2022-08-26T13:03:27.826Z,29.94
2022-08-26T13:06:09.259Z,29.93
2022-08-26T13:08:47.764Z,29.98
2022-08-26T13:11:28.119Z,30.00
2022-08-26T13:13:58.076Z,30.07
2022-08-26T13:16:27.010Z,30.17
2022-08-26T13:19:00.071Z,30.24
2022-08-26T13:21:30.146Z,30.23
2022-08-26T13:24:08.245Z,30.29
2022-08-26T13:26:36.266Z,30.33
2022-08-26T13:29:09.597Z,30.28
2022-08-26T13:31:39.926Z,30.23
2022-08-26T13:34:08.873Z,30.27
2022-08-26T13:36:37.204Z,30.26
2022-08-26T13:39:06.281Z,30.25
2022-08-26T13:41:34.325Z,30.29
2022-08-26T13:44:02.374Z,30.32
2022-08-26T13:46:30.511Z,30.35
2022-08-26T13:48:58.758Z,30.23
2022-08-26T13:51:27.829Z,30.24
2022-08-26T13:53:56.160Z,30.26
2022-08-26T13:56:27.464Z,30.27
2022-08-26T13:58:56.800Z,30.22
2022-08-26T14:01:24.912Z,30.19
2022-08-26T14:03:53.071Z,30.15
2022-08-26T14:06:21.298Z,30.12
2022-08-26T14:08:49.657Z,30.13
2022-08-26T14:11:18.449Z,30.12
2022-08-26T14:13:46.455Z,30.03
2022-08-26T14:16:22.202Z,29.94
2022-08-26T14:18:51.058Z,29.87
2022-08-26T14:21:19.251Z,29.87
2022-08-26T14:23:47.248Z,29.84
2022-08-26T14:26:28.514Z,29.91
2022-08-26T14:28:59.857Z,29.94
2022-08-26T14:31:29.612Z,29.82
2022-08-26T14:34:00.425Z,29.61
2022-08-26T14:36:28.464Z,29.61
2022-08-26T14:38:58.364Z,29.59
2022-08-26T14:41:27.510Z,29.62
2022-08-26T14:44:06.837Z,29.70
2022-08-26T14:46:39.042Z,29.76
2022-08-26T14:49:10.386Z,29.78
2022-08-26T14:51:39.507Z,29.75
2022-08-26T14:54:12.125Z,29.70
2022-08-26T14:56:54.308Z,29.69
2022-08-26T14:59:26.839Z,29.70
2022-08-26T15:01:55.559Z,29.65
2022-08-26T15:04:24.393Z,29.62
2022-08-26T15:06:53.760Z,29.62
2022-08-26T15:09:22.333Z,29.63
2022-08-26T15:11:50.649Z,29.67
2022-08-26T15:14:20.136Z,29.68
2022-08-26T15:16:49.705Z,29.60
2022-08-26T15:19:18.254Z,29.54
2022-08-26T15:21:47.536Z,29.56
2022-08-26T15:24:17.422Z,29.61
2022-08-26T15:26:45.977Z,29.62
2022-08-26T15:29:13.900Z,29.61
2022-08-26T15:31:43.335Z,29.61
2022-08-26T15:34:16.511Z,29.59
2022-08-26T15:36:46.496Z,29.54
2022-08-26T15:39:15.811Z,29.47
2022-08-26T15:41:44.051Z,29.40
2022-08-26T15:44:12.579Z,29.30
2022-08-26T15:46:40.900Z,29.27
2022-08-26T15:49:08.917Z,29.23
2022-08-26T15:51:47.174Z,29.15
2022-08-26T15:54:16.864Z,29.06
2022-08-26T15:56:45.755Z,28.99
2022-08-26T15:59:16.768Z,28.95
2022-08-26T16:01:44.877Z,28.90
2022-08-26T16:04:14.191Z,28.87
2022-08-26T16:06:43.595Z,28.83
2022-08-26T16:09:11.682Z,28.77
2022-08-26T16:11:43.075Z,28.74
2022-08-26T16:14:10.989Z,28.75
2022-08-26T16:16:40.042Z,28.72
2022-08-26T16:19:08.409Z,28.62
2022-08-26T16:21:36.538Z,28.55
2022-08-26T16:24:05.289Z,28.53
2022-08-26T16:26:36.504Z,28.48
2022-08-26T16:29:09.245Z,28.42
2022-08-26T16:31:38.499Z,28.36
2022-08-26T16:34:07.132Z,28.32
2022-08-26T16:36:36.137Z,28.26
2022-08-26T16:39:05.114Z,28.20
2022-08-26T16:41:33.237Z,28.12
2022-08-26T16:44:01.497Z,28.02
2022-08-26T16:46:29.595Z,27.92
2022-08-26T16:48:58.682Z,27.80
2022-08-26T16:51:28.044Z,27.71
2022-08-26T16:53:57.117Z,27.63
2022-08-26T16:56:34.063Z,27.53
2022-08-26T16:59:04.400Z,27.43
2022-08-26T17:01:32.730Z,27.35
2022-08-26T17:04:00.981Z,27.26
2022-08-26T17:06:30.071Z,27.17
2022-08-26T17:08:58.205Z,27.07
2022-08-26T17:11:26.257Z,26.94
2022-08-26T17:13:54.420Z,26.77
2022-08-26T17:16:26.674Z,26.56
2022-08-26T17:18:56.503Z,26.35
2022-08-26T17:21:25.039Z,26.13
2022-08-26T17:23:53.181Z,25.90
2022-08-26T17:26:21.395Z,25.74
2022-08-26T17:28:50.178Z,25.60
2022-08-26T17:31:18.875Z,25.42
2022-08-26T17:33:53.175Z,25.24
2022-08-26T17:36:27.868Z,25.05
2022-08-26T17:38:57.318Z,24.88
2022-08-26T17:41:26.021Z,24.70
2022-08-26T17:43:53.983Z,24.52
2022-08-26T17:46:22.189Z,24.36
2022-08-26T17:48:50.532Z,24.19
2022-08-26T17:51:19.574Z,24.04
2022-08-26T17:53:48.785Z,23.89
2022-08-26T17:56:18.789Z,23.74
2022-08-26T17:58:51.148Z,23.61
2022-08-26T18:01:20.637Z,23.48
2022-08-26T18:03:48.990Z,23.37
2022-08-26T18:06:16.890Z,23.28
2022-08-26T18:08:45.264Z,23.21
2022-08-26T18:11:15.661Z,23.15
2022-08-26T18:13:47.077Z,23.08
2022-08-26T18:16:16.374Z,23.02
2022-08-26T18:18:44.744Z,22.95
2022-08-26T18:21:17.444Z,22.88
2022-08-26T18:23:46.271Z,22.81
2022-08-26T18:26:19.297Z,22.74
2022-08-26T18:28:47.373Z,22.67
2022-08-26T18:31:15.458Z,22.60
2022-08-26T18:33:43.482Z,22.55
2022-08-26T18:36:15.642Z,22.49
2022-08-26T18:38:43.474Z,22.42
2022-08-26T18:41:11.424Z,22.36
2022-08-26T18:43:39.251Z,22.29
2022-08-26T18:46:08.235Z,22.23
2022-08-26T18:48:37.179Z,22.17
2022-08-26T18:51:05.536Z,22.12
2022-08-26T18:53:34.127Z,22.07
2022-08-26T18:56:02.421Z,22.02
2022-08-26T18:58:30.356Z,21.95
2022-08-26T19:00:58.695Z,21.88
2022-08-26T19:03:28.883Z,21.81
2022-08-26T19:05:57.096Z,21.77
2022-08-26T19:08:25.254Z,21.73
2022-08-26T19:10:53.375Z,21.68
2022-08-26T19:13:21.510Z,21.64
2022-08-26T19:15:49.786Z,21.60
2022-08-26T19:18:18.032Z,21.55
2022-08-26T19:20:46.841Z,21.49
2022-08-26T19:23:30.834Z,21.42
2022-08-26T19:25:59.554Z,21.35
2022-08-26T19:28:27.429Z,21.28
2022-08-26T19:30:55.342Z,21.22
2022-08-26T19:33:23.402Z,21.15
2022-08-26T19:35:52.131Z,21.06
2022-08-26T19:38:20.179Z,20.95
2022-08-26T19:40:48.324Z,20.85
2022-08-26T19:43:16.205Z,20.76
2022-08-26T19:45:45.080Z,20.67
2022-08-26T19:48:12.950Z,20.58
2022-08-26T19:50:42.484Z,20.50
2022-08-26T19:53:10.345Z,20.43
2022-08-26T19:55:38.204Z,20.35
2022-08-26T19:58:06.705Z,20.28
2022-08-26T20:00:36.873Z,20.20
2022-08-26T20:03:04.947Z,20.14
2022-08-26T20:05:32.914Z,20.07
2022-08-26T20:08:00.856Z,20.00
2022-08-26T20:10:29.051Z,19.93
2022-08-26T20:12:57.197Z,19.87
2022-08-26T20:15:25.195Z,19.80
2022-08-26T20:17:56.436Z,19.73
2022-08-26T20:20:43.049Z,19.67
2022-08-26T20:23:11.003Z,19.61
2022-08-26T20:25:38.893Z,19.55
2022-08-26T20:28:06.917Z,19.50
2022-08-26T20:30:34.916Z,19.46
2022-08-26T20:33:02.887Z,19.41
2022-08-26T20:35:30.890Z,19.36
2022-08-26T20:37:59.128Z,19.33
2022-08-26T20:40:27.125Z,19.31
2022-08-26T20:42:55.113Z,19.28
2022-08-26T20:45:22.997Z,19.25
2022-08-26T20:47:50.936Z,19.21
2022-08-26T20:50:19.050Z,19.17
2022-08-26T20:52:46.884Z,19.12
2022-08-26T20:55:15.386Z,19.07
2022-08-26T20:57:43.911Z,19.03
2022-08-26T21:00:13.661Z,18.98
2022-08-26T21:02:42.358Z,18.92
2022-08-26T21:05:10.840Z,18.89
2022-08-26T21:07:39.616Z,18.85
2022-08-26T21:10:07.675Z,18.82
2022-08-26T21:12:36.347Z,18.79
2022-08-26T21:15:05.029Z,18.77
2022-08-26T21:17:33.135Z,18.73
2022-08-26T21:20:01.094Z,18.70
2022-08-26T21:22:29.819Z,18.68
2022-08-26T21:24:57.742Z,18.67
2022-08-26T21:27:26.240Z,18.64
2022-08-26T21:29:54.617Z,18.61
2022-08-26T21:32:22.597Z,18.58
2022-08-26T21:34:54.452Z,18.55
2022-08-26T21:37:22.409Z,18.52
2022-08-26T21:39:53.015Z,18.49
2022-08-26T21:42:21.371Z,18.47
2022-08-26T21:44:52.952Z,18.42
2022-08-26T21:47:21.356Z,18.37
2022-08-26T21:49:49.248Z,18.33
2022-08-26T21:52:17.443Z,18.29
2022-08-26T21:54:49.357Z,18.25
2022-08-26T21:57:18.499Z,18.22
2022-08-26T21:59:46.473Z,18.19
2022-08-26T22:02:15.139Z,18.15
2022-08-26T22:04:48.109Z,18.11
2022-08-26T22:07:18.226Z,18.07
2022-08-26T22:09:46.602Z,18.03
2022-08-26T22:12:15.162Z,17.98
2022-08-26T22:14:43.575Z,17.94
2022-08-26T22:17:11.779Z,17.90
2022-08-26T22:19:46.248Z,17.87
2022-08-26T22:22:15.156Z,17.82
2022-08-26T22:24:43.805Z,17.80
2022-08-26T22:27:12.279Z,17.77
2022-08-26T22:29:40.692Z,17.75
2022-08-26T22:32:08.630Z,17.74
2022-08-26T22:34:36.796Z,17.73
2022-08-26T22:37:04.899Z,17.74
2022-08-26T22:39:32.847Z,17.73
2022-08-26T22:42:00.775Z,17.73
2022-08-26T22:44:28.743Z,17.71
2022-08-26T22:46:57.154Z,17.69
2022-08-26T22:49:25.213Z,17.67
2022-08-26T22:51:53.141Z,17.65
2022-08-26T22:54:21.217Z,17.62
2022-08-26T22:56:49.171Z,17.58
2022-08-26T22:59:17.202Z,17.55
2022-08-26T23:01:47.061Z,17.52
2022-08-26T23:04:15.133Z,17.49
2022-08-26T23:06:47.339Z,17.45
2022-08-26T23:09:18.529Z,17.41
2022-08-26T23:11:47.658Z,17.36
2022-08-26T23:14:17.093Z,17.32
2022-08-26T23:16:45.069Z,17.27
2022-08-26T23:19:14.165Z,17.23
2022-08-26T23:21:42.069Z,17.20
2022-08-26T23:24:10.172Z,17.16
2022-08-26T23:26:39.180Z,17.12
2022-08-26T23:29:08.469Z,17.07
2022-08-26T23:31:37.095Z,17.03
2022-08-26T23:34:23.701Z,17.00
2022-08-26T23:36:52.819Z,16.99
2022-08-26T23:39:21.881Z,16.98
2022-08-26T23:41:49.736Z,16.97
2022-08-26T23:44:18.208Z,16.97
2022-08-26T23:46:46.101Z,16.96
2022-08-26T23:49:14.000Z,16.96
2022-08-26T23:52:00.349Z,16.94
2022-08-26T23:54:28.345Z,16.91
2022-08-26T23:56:56.167Z,16.87
2022-08-26T23:59:24.165Z,16.85
